createdAt,value
2022-10-05T00:00:25.425Z,12.00
2022-10-05T00:03:17.795Z,10.30
2022-10-05T00:05:50.770Z,8.40
2022-10-05T00:08:26.523Z,9.50
2022-10-05T00:10:58.876Z,9.20
2022-10-05T00:13:32.226Z,8.70
2022-10-05T00:16:14.684Z,11.50
2022-10-05T00:18:50.046Z,9.80
2022-10-05T00:21:24.610Z,9.40
2022-10-05T00:23:59.785Z,9.60
2022-10-05T00:26:35.454Z,11.70
2022-10-05T00:29:22.745Z,10.20
2022-10-05T00:31:55.176Z,8.80
2022-10-05T00:37:01.243Z,9.50
2022-10-05T00:39:34.385Z,9.60
2022-10-05T00:42:20.890Z,8.30
2022-10-05T00:44:56.734Z,10.30
2022-10-05T00:47:42.497Z,8.20
2022-10-05T00:50:44.844Z,9.50
2022-10-05T00:53:31.665Z,7.60
2022-10-05T00:56:08.021Z,6.90
2022-10-05T00:58:55.385Z,8.20
2022-10-05T01:01:33.150Z,7.00
2022-10-05T01:04:16.802Z,8.70
2022-10-05T01:07:03.303Z,8.80
2022-10-05T01:09:43.775Z,7.80
2022-10-05T01:12:24.543Z,8.00
2022-10-05T01:15:06.586Z,8.90
2022-10-05T01:17:46.053Z,9.30
2022-10-05T01:20:35.631Z,7.90
2022-10-05T01:23:33.147Z,8.90
2022-10-05T01:26:25.926Z,10.30
2022-10-05T01:29:05.090Z,9.80
2022-10-05T01:31:44.104Z,8.10
2022-10-05T01:34:29.194Z,8.40
2022-10-05T01:37:08.412Z,10.00
2022-10-05T01:39:51.722Z,9.60
2022-10-05T01:42:32.505Z,9.70
2022-10-05T01:45:10.721Z,10.30
2022-10-05T01:47:48.969Z,9.20
2022-10-05T01:50:34.423Z,7.90
2022-10-05T01:53:21.280Z,7.90
2022-10-05T01:56:00.284Z,9.00
2022-10-05T01:58:42.805Z,8.70
2022-10-05T02:01:26.972Z,8.00
2022-10-05T02:04:10.525Z,8.40
2022-10-05T02:06:46.602Z,8.00
2022-10-05T02:09:24.204Z,7.70
2022-10-05T02:12:13.161Z,8.30
2022-10-05T02:14:48.715Z,8.00
2022-10-05T02:20:00.000Z,7.70
2022-10-05T02:22:36.679Z,7.40
2022-10-05T02:25:14.589Z,9.10
2022-10-05T02:27:51.245Z,9.50
2022-10-05T02:30:24.276Z,8.50
2022-10-05T02:33:01.380Z,9.40
2022-10-05T02:35:33.882Z,9.30
2022-10-05T02:38:15.681Z,8.40
2022-10-05T02:40:59.928Z,8.20
2022-10-05T02:43:44.529Z,7.50
2022-10-05T02:46:29.175Z,6.80
2022-10-05T02:49:13.829Z,8.20
2022-10-05T02:51:57.558Z,9.90
2022-10-05T02:54:43.864Z,11.70
2022-10-05T02:57:26.157Z,10.50
2022-10-05T03:00:03.357Z,9.00
2022-10-05T03:02:42.721Z,9.10
2022-10-05T03:05:23.424Z,9.60
2022-10-05T03:08:02.267Z,8.40
2022-10-05T03:10:40.855Z,9.20
2022-10-05T03:13:27.311Z,8.60
2022-10-05T03:16:12.830Z,10.60
2022-10-05T03:18:57.441Z,10.30
2022-10-05T03:21:44.977Z,9.10
2022-10-05T03:24:43.577Z,10.70
2022-10-05T03:27:28.382Z,10.30
2022-10-05T03:30:14.757Z,9.80
2022-10-05T03:33:01.784Z,10.40
2022-10-05T03:35:38.267Z,11.10
2022-10-05T03:38:19.261Z,11.90
2022-10-05T03:40:59.048Z,11.30
2022-10-05T03:43:51.806Z,10.20
2022-10-05T03:46:33.809Z,10.30
2022-10-05T03:49:17.019Z,9.80
2022-10-05T03:51:55.081Z,11.60
2022-10-05T03:54:32.057Z,10.70
2022-10-05T03:57:12.479Z,10.90
2022-10-05T03:59:53.462Z,9.60
2022-10-05T04:02:30.635Z,10.50
2022-10-05T04:05:12.800Z,10.10
2022-10-05T04:07:47.651Z,11.10
2022-10-05T04:10:27.003Z,11.80
2022-10-05T04:13:04.690Z,10.90
2022-10-05T04:15:43.121Z,11.40
2022-10-05T04:18:27.285Z,12.10
2022-10-05T04:21:04.323Z,12.80
2022-10-05T04:23:46.034Z,14.20
2022-10-05T04:26:21.327Z,15.70
2022-10-05T04:29:00.411Z,15.80
2022-10-05T04:31:50.008Z,13.20
2022-10-05T04:34:42.090Z,13.20
2022-10-05T04:37:22.981Z,12.90
2022-10-05T04:40:09.943Z,12.70
2022-10-05T04:42:49.028Z,12.80
2022-10-05T04:45:35.360Z,12.30
2022-10-05T04:48:21.934Z,17.40
2022-10-05T04:51:07.470Z,12.30
2022-10-05T04:53:47.774Z,11.70
2022-10-05T04:56:29.643Z,12.20
2022-10-05T04:59:20.860Z,15.30
2022-10-05T05:02:08.776Z,17.40
2022-10-05T05:05:00.128Z,13.90
2022-10-05T05:07:49.193Z,11.70
2022-10-05T05:10:45.134Z,12.90
2022-10-05T05:13:39.841Z,13.40
2022-10-05T05:16:21.456Z,13.60
2022-10-05T05:19:33.094Z,14.10
2022-10-05T05:22:09.655Z,13.60
2022-10-05T05:24:58.886Z,12.60
2022-10-05T05:27:48.674Z,15.00
2022-10-05T05:30:25.983Z,12.50
2022-10-05T05:33:20.409Z,20.10
2022-10-05T05:36:26.425Z,17.50
2022-10-05T05:39:18.383Z,15.10
2022-10-05T05:42:01.857Z,15.00
2022-10-05T05:44:41.325Z,14.00
2022-10-05T05:47:21.063Z,12.80
2022-10-05T05:50:11.673Z,13.70
2022-10-05T05:52:48.612Z,13.00
2022-10-05T05:55:29.971Z,13.30
2022-10-05T05:58:11.508Z,12.50
2022-10-05T06:00:49.770Z,14.30
2022-10-05T06:03:27.385Z,11.60
2022-10-05T06:06:03.037Z,13.50
2022-10-05T06:08:39.396Z,11.20
2022-10-05T06:11:34.272Z,14.30
2022-10-05T06:14:14.355Z,11.30
2022-10-05T06:16:52.600Z,12.90
2022-10-05T06:19:27.678Z,29.90
2022-10-05T06:22:06.835Z,12.20
2022-10-05T06:24:45.564Z,10.90
2022-10-05T06:27:28.523Z,10.70
2022-10-05T06:30:13.456Z,13.80
2022-10-05T06:33:07.627Z,15.20
2022-10-05T06:35:53.782Z,13.10
2022-10-05T06:38:50.858Z,13.00
2022-10-05T06:41:35.279Z,11.60
2022-10-05T06:44:14.260Z,12.50
2022-10-05T06:46:59.593Z,11.90
2022-10-05T06:49:58.811Z,9.60
2022-10-05T06:52:55.232Z,10.20
2022-10-05T06:55:37.985Z,10.60
2022-10-05T06:58:27.972Z,9.40
2022-10-05T07:01:06.193Z,11.40
2022-10-05T07:03:48.454Z,28.20
2022-10-05T07:06:26.873Z,10.70
2022-10-05T07:09:15.263Z,12.90
2022-10-05T07:12:04.580Z,20.70
2022-10-05T07:14:57.584Z,21.50
2022-10-05T07:17:45.735Z,16.30
2022-10-05T07:20:27.893Z,16.00
2022-10-05T07:23:19.877Z,19.00
2022-10-05T07:26:01.483Z,14.70
2022-10-05T07:28:44.801Z,12.80
2022-10-05T07:31:29.421Z,11.50
2022-10-05T07:34:10.897Z,30.80
2022-10-05T07:37:08.648Z,13.50
2022-10-05T07:40:00.250Z,15.70
2022-10-05T07:42:51.717Z,12.00
2022-10-05T07:45:35.302Z,11.40
2022-10-05T07:48:15.048Z,10.10
2022-10-05T07:50:59.956Z,11.60
2022-10-05T07:53:38.125Z,11.40
2022-10-05T07:56:22.088Z,14.10
2022-10-05T07:59:01.835Z,14.10
2022-10-05T08:01:38.787Z,10.50
2022-10-05T08:04:16.922Z,16.20
2022-10-05T08:06:55.285Z,9.40
2022-10-05T08:09:37.840Z,17.40
2022-10-05T08:12:30.926Z,52.80
2022-10-05T08:15:10.969Z,30.60
2022-10-05T08:17:51.908Z,9.20
2022-10-05T08:20:36.695Z,32.20
2022-10-05T08:23:18.972Z,47.70
2022-10-05T08:26:04.006Z,27.10
2022-10-05T08:28:52.463Z,13.20
2022-10-05T08:31:33.122Z,19.60
2022-10-05T08:34:20.320Z,15.20
2022-10-05T08:36:59.470Z,14.30
2022-10-05T08:39:38.563Z,11.50
2022-10-05T08:42:52.609Z,10.20
2022-10-05T08:45:55.536Z,10.40
2022-10-05T08:48:53.549Z,7.10
2022-10-05T08:52:02.503Z,7.40
2022-10-05T08:55:05.765Z,7.80
2022-10-05T08:58:17.397Z,7.20
2022-10-05T09:01:08.926Z,8.50
2022-10-05T09:04:20.927Z,7.30
2022-10-05T09:07:18.481Z,8.10
2022-10-05T09:10:26.003Z,8.70
2022-10-05T09:13:29.928Z,6.00
2022-10-05T09:16:37.721Z,5.60
2022-10-05T09:19:33.017Z,5.80
2022-10-05T09:22:16.619Z,6.30
2022-10-05T09:25:04.804Z,5.00
2022-10-05T09:27:40.203Z,5.50
2022-10-05T09:30:23.437Z,4.70
2022-10-05T09:33:47.611Z,5.40
2022-10-05T09:36:56.345Z,5.80
2022-10-05T09:39:52.632Z,6.20
2022-10-05T09:42:54.201Z,5.40
2022-10-05T09:46:01.448Z,6.60
2022-10-05T09:49:07.669Z,5.70
2022-10-05T09:52:12.311Z,6.40
2022-10-05T09:55:24.119Z,5.80
2022-10-05T09:58:33.510Z,5.90
2022-10-05T10:01:33.050Z,6.00
2022-10-05T10:04:43.915Z,7.90
2022-10-05T10:08:05.817Z,17.40
2022-10-05T10:10:58.337Z,16.00
2022-10-05T10:14:02.359Z,32.70
2022-10-05T10:16:53.785Z,39.50
2022-10-05T10:19:50.120Z,28.90
2022-10-05T10:23:07.976Z,11.40
2022-10-05T10:26:14.303Z,16.20
2022-10-05T10:32:20.548Z,7.90
2022-10-05T10:35:19.559Z,7.30
2022-10-05T10:38:40.320Z,6.60
2022-10-05T10:41:53.694Z,7.80
2022-10-05T10:44:52.535Z,6.20
2022-10-05T10:47:51.768Z,6.60
2022-10-05T10:50:59.018Z,6.00
2022-10-05T10:54:06.249Z,7.90
2022-10-05T10:56:59.545Z,6.20
2022-10-05T11:00:02.790Z,8.60
2022-10-05T11:03:02.285Z,7.60
2022-10-05T11:05:59.615Z,8.30
2022-10-05T11:09:09.509Z,7.40
2022-10-05T11:12:17.916Z,9.40
2022-10-05T11:15:18.354Z,19.20
2022-10-05T11:18:11.628Z,14.50
2022-10-05T11:21:05.775Z,8.40
2022-10-05T11:24:17.014Z,6.40
2022-10-05T11:27:33.111Z,5.00
2022-10-05T11:30:26.910Z,4.60
2022-10-05T11:33:48.331Z,4.60
2022-10-05T11:37:07.253Z,5.30
2022-10-05T11:39:56.352Z,5.30
2022-10-05T11:43:12.827Z,4.70
2022-10-05T11:46:02.119Z,4.60
2022-10-05T11:48:53.505Z,4.90
2022-10-05T11:51:38.355Z,7.40
2022-10-05T11:54:58.496Z,5.90
2022-10-05T11:57:34.835Z,5.80
2022-10-05T12:00:16.512Z,6.80
2022-10-05T12:03:10.948Z,25.20
2022-10-05T12:06:02.208Z,35.60
2022-10-05T12:08:51.129Z,61.20
2022-10-05T12:11:49.001Z,75.60
2022-10-05T12:14:31.095Z,46.00
2022-10-05T12:17:14.860Z,37.10
2022-10-05T12:19:51.027Z,19.10
2022-10-05T12:22:29.190Z,9.40
2022-10-05T12:25:18.065Z,15.80
2022-10-05T12:27:53.742Z,14.00
2022-10-05T12:30:38.716Z,10.60
2022-10-05T12:35:54.078Z,9.80
2022-10-05T12:38:48.475Z,10.90
2022-10-05T12:41:28.748Z,13.90
2022-10-05T12:44:13.058Z,5.00
2022-10-05T12:47:02.349Z,6.10
2022-10-05T12:49:51.482Z,5.10
2022-10-05T12:52:43.456Z,6.80
2022-10-05T12:55:26.655Z,6.50
2022-10-05T12:58:14.637Z,12.50
2022-10-05T13:00:57.473Z,32.50
2022-10-05T13:03:35.752Z,33.60
2022-10-05T13:06:16.529Z,31.20
2022-10-05T13:08:54.950Z,59.90
2022-10-05T13:11:34.979Z,41.90
2022-10-05T13:14:19.399Z,19.10
2022-10-05T13:16:56.868Z,22.80
2022-10-05T13:19:41.692Z,35.20
2022-10-05T13:22:33.712Z,63.50
2022-10-05T13:25:23.641Z,80.60
2022-10-05T13:28:10.902Z,17.90
2022-10-05T13:30:46.916Z,11.60
2022-10-05T13:33:27.201Z,6.00
2022-10-05T13:36:08.545Z,12.00
2022-10-05T13:38:53.068Z,11.90
2022-10-05T13:41:36.145Z,24.40
2022-10-05T13:44:20.122Z,19.30
2022-10-05T13:47:00.912Z,13.50
2022-10-05T13:49:42.454Z,9.50
2022-10-05T13:52:27.240Z,7.60
2022-10-05T13:55:08.114Z,13.40
2022-10-05T13:57:54.123Z,17.80
2022-10-05T14:00:28.184Z,24.40
2022-10-05T14:03:02.142Z,22.30
2022-10-05T14:05:34.760Z,22.90
2022-10-05T14:08:20.189Z,29.50
2022-10-05T14:10:53.977Z,34.70
2022-10-05T14:13:33.453Z,53.90
2022-10-05T14:16:20.213Z,50.10
2022-10-05T14:18:59.088Z,52.10
2022-10-05T14:21:33.550Z,63.20
2022-10-05T14:24:43.094Z,28.60
2022-10-05T14:27:26.800Z,11.80
2022-10-05T14:30:06.453Z,9.50
2022-10-05T14:33:10.347Z,10.30
2022-10-05T14:35:54.656Z,9.10
2022-10-05T14:38:29.970Z,10.80
2022-10-05T14:41:25.030Z,8.40
2022-10-05T14:44:17.684Z,8.60
2022-10-05T14:47:01.290Z,9.30
2022-10-05T14:49:37.508Z,8.40
2022-10-05T14:52:34.820Z,7.50
2022-10-05T14:55:21.278Z,8.50
2022-10-05T14:58:06.680Z,10.20
2022-10-05T15:00:50.346Z,9.30
2022-10-05T15:03:36.976Z,8.90
2022-10-05T15:06:17.162Z,9.00
2022-10-05T15:08:59.607Z,10.50
2022-10-05T15:11:43.351Z,9.60
2022-10-05T15:14:20.515Z,13.60
2022-10-05T15:16:58.875Z,16.10
2022-10-05T15:19:41.566Z,21.50
2022-10-05T15:22:26.620Z,30.10
2022-10-05T15:27:51.496Z,23.70
2022-10-05T15:30:24.666Z,48.80
2022-10-05T15:33:10.652Z,61.10
2022-10-05T15:36:04.401Z,40.20
2022-10-05T15:38:45.430Z,30.20
2022-10-05T15:41:24.102Z,27.50
2022-10-05T15:44:09.086Z,37.60
2022-10-05T15:46:53.633Z,50.80
2022-10-05T15:49:38.146Z,48.40
2022-10-05T15:52:23.946Z,33.60
2022-10-05T15:55:35.255Z,34.00
2022-10-05T15:58:31.337Z,43.50
2022-10-05T16:01:08.619Z,29.20
2022-10-05T16:03:50.457Z,28.10
2022-10-05T16:06:57.414Z,17.60
2022-10-05T16:09:50.483Z,16.10
2022-10-05T16:12:31.305Z,14.30
2022-10-05T16:15:16.955Z,10.50
2022-10-05T16:18:18.557Z,12.90
2022-10-05T16:20:55.078Z,54.20
2022-10-05T16:23:39.214Z,23.70
2022-10-05T16:26:22.753Z,27.40
2022-10-05T16:29:03.984Z,17.30
2022-10-05T16:31:47.164Z,16.70
2022-10-05T16:34:30.916Z,14.80
2022-10-05T16:37:12.745Z,17.40
2022-10-05T16:39:53.148Z,29.00
2022-10-05T16:42:36.314Z,25.70
2022-10-05T16:45:22.978Z,20.70
2022-10-05T16:48:04.880Z,16.00
2022-10-05T16:50:48.905Z,19.90
2022-10-05T16:53:26.569Z,27.70
2022-10-05T16:56:03.230Z,44.70
2022-10-05T16:58:50.987Z,27.70
2022-10-05T17:01:42.349Z,19.20
2022-10-05T17:04:26.236Z,22.50
2022-10-05T17:07:32.678Z,22.30
2022-10-05T17:10:41.189Z,22.30
2022-10-05T17:13:37.507Z,26.80
2022-10-05T17:16:19.281Z,24.00
2022-10-05T17:19:19.341Z,96.50
2022-10-05T17:22:00.764Z,35.20
2022-10-05T17:24:55.106Z,25.50
2022-10-05T17:27:35.565Z,26.50
2022-10-05T17:30:53.986Z,21.60
2022-10-05T17:33:29.163Z,20.60
2022-10-05T17:36:21.577Z,23.30
2022-10-05T17:39:12.292Z,35.10
2022-10-05T17:41:45.368Z,29.60
2022-10-05T17:44:26.467Z,34.40
2022-10-05T17:47:04.619Z,27.30
2022-10-05T17:50:09.995Z,16.90
2022-10-05T17:53:02.263Z,16.50
2022-10-05T17:55:46.799Z,21.00
2022-10-05T17:59:02.382Z,20.80
2022-10-05T18:01:37.436Z,29.70
2022-10-05T18:04:33.764Z,24.90
2022-10-05T18:07:16.857Z,31.30
2022-10-05T18:10:29.110Z,30.70
2022-10-05T18:13:35.600Z,24.90
2022-10-05T18:16:11.120Z,33.20
2022-10-05T18:18:58.222Z,20.70
2022-10-05T18:21:39.106Z,30.30
2022-10-05T18:24:45.557Z,43.10
2022-10-05T18:27:42.850Z,23.70
2022-10-05T18:30:23.346Z,17.50
2022-10-05T18:33:27.289Z,21.90
2022-10-05T18:36:19.541Z,40.90
2022-10-05T18:39:01.318Z,20.30
2022-10-05T18:41:48.490Z,22.70
2022-10-05T18:44:35.732Z,20.10
2022-10-05T18:47:18.367Z,29.30
2022-10-05T18:50:26.358Z,29.00
2022-10-05T18:53:16.264Z,24.70
2022-10-05T18:55:59.023Z,19.40
2022-10-05T18:58:42.118Z,28.10
2022-10-05T19:01:36.613Z,20.50
2022-10-05T19:04:22.633Z,23.60
2022-10-05T19:07:05.965Z,19.90
2022-10-05T19:09:53.940Z,15.80
2022-10-05T19:12:41.545Z,17.10
2022-10-05T19:15:24.954Z,18.70
2022-10-05T19:18:15.481Z,19.10
2022-10-05T19:20:55.731Z,16.20
2022-10-05T19:23:46.756Z,16.70
2022-10-05T19:26:30.081Z,19.40
2022-10-05T19:29:14.027Z,23.50
2022-10-05T19:31:51.521Z,16.10
2022-10-05T19:34:41.161Z,19.10
2022-10-05T19:37:19.077Z,22.00
2022-10-05T19:39:57.813Z,18.00
2022-10-05T19:42:53.569Z,16.60
2022-10-05T19:45:27.576Z,19.80
2022-10-05T19:48:14.118Z,16.00
2022-10-05T19:50:56.283Z,11.60
2022-10-05T19:53:31.278Z,11.90
2022-10-05T19:56:20.495Z,11.60
2022-10-05T19:58:57.502Z,11.50
2022-10-05T20:01:35.517Z,12.00
2022-10-05T20:04:09.582Z,11.10
2022-10-05T20:06:42.310Z,11.20
2022-10-05T20:09:24.799Z,12.00
2022-10-05T20:11:57.730Z,12.10
2022-10-05T20:14:58.550Z,13.00
2022-10-05T20:17:49.525Z,17.30
2022-10-05T20:20:32.137Z,15.10
2022-10-05T20:23:21.926Z,56.80
2022-10-05T20:26:17.500Z,15.90
2022-10-05T20:31:21.474Z,18.80
2022-10-05T20:33:53.760Z,22.90
2022-10-05T20:36:26.096Z,13.30
2022-10-05T20:39:00.830Z,11.60
2022-10-05T20:41:35.935Z,79.30
2022-10-05T20:44:08.458Z,80.40
2022-10-05T20:46:41.784Z,14.60
2022-10-05T20:49:14.497Z,14.40
2022-10-05T20:51:46.764Z,15.80
2022-10-05T20:54:19.137Z,20.80
2022-10-05T20:56:51.777Z,10.60
2022-10-05T20:59:24.970Z,10.80
2022-10-05T21:01:59.109Z,14.70
2022-10-05T21:04:40.049Z,16.60
2022-10-05T21:07:13.111Z,12.00
2022-10-05T21:09:46.709Z,11.10
2022-10-05T21:12:19.248Z,10.30
2022-10-05T21:14:52.828Z,20.80
2022-10-05T21:17:25.084Z,32.60
2022-10-05T21:19:57.652Z,33.80
2022-10-05T21:22:30.264Z,11.30
2022-10-05T21:25:02.582Z,11.10
2022-10-05T21:27:34.951Z,59.10
2022-10-05T21:30:08.666Z,15.90
2022-10-05T21:32:44.464Z,33.90
2022-10-05T21:35:17.313Z,14.00
2022-10-05T21:37:49.616Z,11.40
2022-10-05T21:40:21.900Z,9.80
2022-10-05T21:42:54.241Z,17.50
2022-10-05T21:45:26.726Z,28.40
2022-10-05T21:48:00.095Z,35.00
2022-10-05T21:50:33.615Z,15.50
2022-10-05T21:53:12.275Z,26.40
2022-10-05T21:55:48.508Z,12.70
2022-10-05T21:58:28.048Z,10.50
2022-10-05T22:01:00.648Z,34.40
2022-10-05T22:03:57.049Z,13.40
2022-10-05T22:06:29.401Z,10.50
2022-10-05T22:09:02.034Z,46.40
2022-10-05T22:11:34.785Z,37.90
2022-10-05T22:14:07.105Z,64.50
2022-10-05T22:16:40.639Z,34.30
2022-10-05T22:19:20.073Z,22.90
2022-10-05T22:21:52.583Z,41.00
2022-10-05T22:24:24.982Z,35.40
2022-10-05T22:26:57.331Z,13.00
2022-10-05T22:29:29.708Z,51.10
2022-10-05T22:32:02.110Z,41.00
2022-10-05T22:34:34.537Z,10.10
2022-10-05T22:37:07.634Z,10.50
2022-10-05T22:39:40.006Z,9.60
2022-10-05T22:42:12.403Z,9.50
2022-10-05T22:44:44.673Z,9.10
2022-10-05T22:47:17.248Z,10.70
2022-10-05T22:49:49.539Z,9.00
2022-10-05T22:52:21.839Z,8.10
2022-10-05T22:54:54.260Z,8.60
2022-10-05T22:57:26.624Z,9.70
2022-10-05T22:59:58.923Z,9.80
2022-10-05T23:02:31.301Z,13.00
2022-10-05T23:05:03.603Z,21.80
2022-10-05T23:07:40.004Z,14.40
2022-10-05T23:10:15.103Z,10.10
2022-10-05T23:12:59.694Z,10.10
2022-10-05T23:15:33.989Z,7.50
2022-10-05T23:18:06.344Z,9.20
2022-10-05T23:20:38.608Z,9.30
2022-10-05T23:23:10.860Z,8.40
2022-10-05T23:25:43.212Z,10.10
2022-10-05T23:28:15.527Z,9.20
2022-10-05T23:30:48.210Z,8.40
2022-10-05T23:33:20.562Z,9.90
2022-10-05T23:36:00.310Z,8.70
2022-10-05T23:38:32.792Z,9.70
2022-10-05T23:41:06.265Z,8.60
2022-10-05T23:43:39.334Z,9.00
2022-10-05T23:46:12.693Z,9.30
2022-10-05T23:48:44.954Z,8.30
2022-10-05T23:51:17.293Z,9.10
2022-10-05T23:53:49.652Z,9.60
2022-10-05T23:56:22.181Z,8.50
2022-10-05T23:58:54.504Z,9.10
